KLCK

Rickenbacker International Airport

Columbus, Ohio, USA
METAR KLCK 201955Z AUTO 12007KT 10SM SCT055 29/20 A2993 RMK AO2 T02860202
Observed Flight Rules
Aug-20 @ 19:55 UTC (34 minutes ago) Visual Flight Rules
Wind Visibility Clouds
120° at 7 knots 10 miles
  • Scattered at 5,500' AGL
Temperatures Readings
Current 29°C / 84°F
Dewpoint 20°C / 68°F
Humidity 58%
Altimeter 29.93" Hg
Pressure 1014 hPa
Elevation 227
METAR KLCK 201955Z AUTO 12007KT 10SM SCT055 29/20 A2993 RMK AO2 T02860202
Observed Flight Rules
Aug-20 @ 19:55 UTC
(34 minutes ago)
VFR
Wind Visibility
120° at 7 knots 10 miles
Clouds
  • Scattered at 5,500' AGL
Temperature Dewpoint
29°C / 84°F 20°C / 68°F
Humidity Altimeter Pressure
58% 29.93" Hg 1014 hPa